TimeCDT,TemperatureF,Dew PointF,Humidity,Sea Level PressureIn,VisibilityMPH,Wind Direction,Wind SpeedMPH,Gust SpeedMPH,PrecipitationIn,Events,Conditions,WindDirDegrees,DateUTC
12:01 AM,43.0,42.1,97,30.14,0.5,Calm,Calm,-,N/A,Fog,Fog,0,2013-10-10 05:01:00
12:11 AM,43.0,42.1,97,30.14,1.2,Calm,Calm,-,N/A,,Partly Cloudy,0,2013-10-10 05:11:00
12:23 AM,43.0,41.0,93,30.13,0.8,Calm,Calm,-,N/A,,Mist,0,2013-10-10 05:23:00
12:53 AM,42.1,41.0,96,30.14,1.5,Calm,Calm,-,N/A,,Partly Cloudy,0,2013-10-10 05:53:00
1:07 AM,42.1,41.0,96,30.13,1.0,Calm,Calm,-,N/A,,Clear,0,2013-10-10 06:07:00
1:23 AM,43.0,41.0,93,30.14,2.5,Calm,Calm,-,N/A,,Clear,0,2013-10-10 06:23:00
1:30 AM,42.1,39.9,92,30.14,10.0,Calm,Calm,-,N/A,,Clear,0,2013-10-10 06:30:00
1:51 AM,42.8,39.2,87,30.14,2.5,Calm,Calm,-,N/A,,Partly Cloudy,0,2013-10-10 06:51:00
1:53 AM,42.1,39.9,92,30.14,1.8,Calm,Calm,-,N/A,,Partly Cloudy,0,2013-10-10 06:53:00
2:05 AM,41.0,39.9,96,30.13,0.8,Calm,Calm,-,N/A,,Clear,0,2013-10-10 07:05:00
2:13 AM,42.1,39.9,92,30.13,0.2,Calm,Calm,-,N/A,Fog,Fog,0,2013-10-10 07:13:00
2:25 AM,41.0,39.0,93,30.13,0.2,Calm,Calm,-,N/A,Fog,Fog,0,2013-10-10 07:25:00
2:37 AM,42.1,39.9,92,30.13,0.8,Calm,Calm,-,N/A,,Mist,0,2013-10-10 07:37:00
2:39 AM,42.1,39.9,92,30.13,1.2,Calm,Calm,-,N/A,,Partly Cloudy,0,2013-10-10 07:39:00
2:45 AM,42.1,39.9,92,30.13,0.8,Calm,Calm,-,N/A,,Mist,0,2013-10-10 07:45:00
2:53 AM,41.0,39.0,93,30.14,0.8,Calm,Calm,-,N/A,,Mist,0,2013-10-10 07:53:00
2:55 AM,42.1,39.9,92,30.13,1.2,Calm,Calm,-,N/A,,Partly Cloudy,0,2013-10-10 07:55:00
3:05 AM,41.0,39.9,96,30.13,1.0,Calm,Calm,-,N/A,,Mist,0,2013-10-10 08:05:00
3:13 AM,41.0,39.0,93,30.13,0.2,Calm,Calm,-,N/A,Fog,Fog,0,2013-10-10 08:13:00
3:53 AM,41.0,39.0,93,30.14,1.0,Calm,Calm,-,N/A,,Mist,0,2013-10-10 08:53:00
4:02 AM,42.1,39.9,92,30.13,0.2,Calm,Calm,-,N/A,Fog,Fog,0,2013-10-10 09:02:00
4:14 AM,39.9,37.9,93,30.14,1.8,Calm,Calm,-,N/A,,Scattered Clouds,0,2013-10-10 09:14:00
4:20 AM,39.9,39.0,97,30.14,0.8,Calm,Calm,-,N/A,,Mist,0,2013-10-10 09:20:00
4:53 AM,39.9,39.0,97,30.15,0.2,Calm,Calm,-,N/A,Fog,Fog,0,2013-10-10 09:53:00
5:46 AM,37.9,37.0,97,30.15,1.2,Calm,Calm,-,N/A,,Scattered Clouds,0,2013-10-10 10:46:00
5:53 AM,39.0,37.0,93,30.16,2.0,Calm,Calm,-,N/A,,Mostly Cloudy,0,2013-10-10 10:53:00
6:00 AM,39.0,37.0,93,30.15,1.0,Calm,Calm,-,N/A,,Mist,0,2013-10-10 11:00:00
6:07 AM,39.0,37.9,96,30.15,0.5,Calm,Calm,-,N/A,Fog,Fog,0,2013-10-10 11:07:00
6:53 AM,39.0,37.0,93,30.16,0.2,Calm,Calm,-,N/A,Fog,Fog,0,2013-10-10 11:53:00
7:53 AM,43.0,41.0,93,30.17,0.2,Calm,Calm,-,N/A,Fog,Fog,0,2013-10-10 12:53:00
8:53 AM,46.9,45.0,93,30.17,1.2,NE,4.6,-,N/A,,Overcast,40,2013-10-10 13:53:00
9:02 AM,48.0,46.0,93,30.16,3.0,Calm,Calm,-,N/A,,Overcast,0,2013-10-10 14:02:00
9:29 AM,48.9,48.0,97,30.16,7.0,ENE,3.5,-,N/A,,Scattered Clouds,60,2013-10-10 14:29:00
9:53 AM,51.1,48.9,92,30.17,9.0,ENE,3.5,-,N/A,,Clear,60,2013-10-10 14:53:00
10:53 AM,62.1,50.0,65,30.15,10.0,Variable,4.6,-,N/A,,Clear,0,2013-10-10 15:53:00
11:08 AM,64.0,50.0,60,30.13,10.0,Variable,3.5,-,N/A,,Partly Cloudy,0,2013-10-10 16:08:00
11:53 AM,71.1,48.9,45,30.12,10.0,Variable,6.9,-,N/A,,Clear,0,2013-10-10 16:53:00
12:53 PM,72.0,46.9,41,30.10,10.0,South,8.1,-,N/A,,Clear,170,2013-10-10 17:53:00
1:53 PM,75.9,46.0,35,30.08,10.0,South,8.1,-,N/A,,Clear,190,2013-10-10 18:53:00
2:53 PM,75.9,45.0,33,30.05,10.0,SSE,8.1,-,N/A,,Clear,160,2013-10-10 19:53:00
3:53 PM,75.9,45.0,33,30.04,10.0,SSE,5.8,-,N/A,,Clear,150,2013-10-10 20:53:00
4:53 PM,75.0,46.0,36,30.04,10.0,South,6.9,-,N/A,,Clear,190,2013-10-10 21:53:00
5:53 PM,72.0,46.9,41,30.04,10.0,South,3.5,-,N/A,,Clear,170,2013-10-10 22:53:00
6:53 PM,61.0,51.1,70,30.03,10.0,Calm,Calm,-,N/A,,Clear,0,2013-10-10 23:53:00
7:53 PM,55.0,51.1,86,30.03,10.0,Calm,Calm,-,N/A,,Clear,0,2013-10-11 00:53:00
8:53 PM,51.1,48.0,89,30.02,10.0,NE,3.5,-,N/A,,Clear,50,2013-10-11 01:53:00
9:53 PM,51.1,48.9,92,30.02,7.0,Calm,Calm,-,N/A,,Clear,0,2013-10-11 02:53:00
10:27 PM,48.9,46.9,93,30.01,1.5,Calm,Calm,-,N/A,,Clear,0,2013-10-11 03:27:00
10:31 PM,48.0,46.9,96,30.01,0.8,Calm,Calm,-,N/A,,Mist,0,2013-10-11 03:31:00
10:39 PM,48.0,46.9,96,30.01,1.0,Calm,Calm,-,N/A,,Clear,0,2013-10-11 03:39:00
10:43 PM,48.9,46.9,93,30.01,2.5,Calm,Calm,-,N/A,,Clear,0,2013-10-11 03:43:00
10:53 PM,48.9,46.9,93,30.02,2.5,Calm,Calm,-,N/A,,Clear,0,2013-10-11 03:53:00
11:06 PM,48.9,46.9,93,30.02,1.5,Calm,Calm,-,N/A,,Clear,0,2013-10-11 04:06:00
11:24 PM,46.9,46.0,97,30.02,3.0,Calm,Calm,-,N/A,,Clear,0,2013-10-11 04:24:00
11:35 PM,46.9,46.0,97,30.02,1.5,Calm,Calm,-,N/A,,Clear,0,2013-10-11 04:35:00
11:45 PM,46.0,44.1,93,30.02,3.0,Calm,Calm,-,N/A,,Clear,0,2013-10-11 04:45:00
11:53 PM,46.9,45.0,93,30.02,6.0,Calm,Calm,-,N/A,,Clear,0,2013-10-11 04:53:00